Time;durP1;ratioP1;P1;durP2;ratioP2;P2;SDS_P1;SDS_P2;PMS_P1;PMS_P2;Temp;Humidity;BMP_temperature;BMP_pressure;BME280_temperature;BME280_humidity;BME280_pressure;Samples;Min_cycle;Max_cycle;Signal;HPM_P1;HPM_P2
2022/10/23 04:01:19;;;;;;;1.83;1.33;;;;;;;;;;5558968;23;20537;-83
2022/10/23 04:03:45;;;;;;;3.07;1.90;;;;;;;;;;5008789;28;20505;-83
2022/10/23 04:06:11;;;;;;;3.08;1.70;;;;;;;;;;5001013;28;20406;-83
2022/10/23 04:08:37;;;;;;;1.60;1.50;;;;;;;;;;4999959;28;20870;-83
2022/10/23 04:11:03;;;;;;;2.00;1.60;;;;;;;;;;5013251;28;20920;-84
2022/10/23 04:13:29;;;;;;;2.03;1.70;;;;;;;;;;5012960;28;20381;-83
2022/10/23 04:15:55;;;;;;;6.00;1.80;;;;;;;;;;5013498;28;20377;-83
2022/10/23 04:18:21;;;;;;;3.15;1.42;;;;;;;;;;5013106;28;20456;-83
2022/10/23 04:20:48;;;;;;;3.17;1.08;;;;;;;;;;5007792;28;20397;-83
2022/10/23 04:23:14;;;;;;;1.27;1.17;;;;;;;;;;5012719;28;20381;-83
2022/10/23 04:25:40;;;;;;;3.60;1.63;;;;;;;;;;5008071;28;20746;-83
2022/10/23 04:28:06;;;;;;;2.75;1.30;;;;;;;;;;5013140;28;20866;-83
2022/10/23 04:30:33;;;;;;;2.33;1.30;;;;;;;;;;5013004;28;20408;-83
2022/10/23 04:32:59;;;;;;;3.30;1.30;;;;;;;;;;5012921;28;20431;-84
2022/10/23 04:35:25;;;;;;;7.30;1.50;;;;;;;;;;5012895;28;20397;-84
2022/10/23 04:37:51;;;;;;;1.75;1.10;;;;;;;;;;5012894;28;20385;-83
2022/10/23 04:40:17;;;;;;;1.30;1.20;;;;;;;;;;5012650;28;20937;-84
2022/10/23 04:42:43;;;;;;;1.90;1.20;;;;;;;;;;5012924;28;20385;-84
2022/10/23 04:45:09;;;;;;;1.20;1.00;;;;;;;;;;5012756;28;20388;-83
2022/10/23 04:47:35;;;;;;;1.73;1.02;;;;;;;;;;5013031;28;20720;-84
2022/10/23 04:50:01;;;;;;;2.80;1.20;;;;;;;;;;5012718;28;20396;-84
2022/10/23 04:52:27;;;;;;;2.90;1.10;;;;;;;;;;5012337;28;20395;-84
2022/10/23 04:54:53;;;;;;;3.30;1.02;;;;;;;;;;5012758;28;20451;-84
2022/10/23 04:57:19;;;;;;;3.97;1.30;;;;;;;;;;5012515;28;20564;-84
2022/10/23 04:59:45;;;;;;;4.05;1.98;;;;;;;;;;5010880;28;20424;-85
2022/10/23 05:02:11;;;;;;;3.47;1.80;;;;;;;;;;5011212;28;20476;-85
2022/10/23 05:04:37;;;;;;;2.33;1.73;;;;;;;;;;5012576;28;20377;-85
2022/10/23 05:07:03;;;;;;;1.73;1.52;;;;;;;;;;5010652;28;20889;-85
2022/10/23 05:09:29;;;;;;;2.05;1.50;;;;;;;;;;5011199;28;20397;-85
2022/10/23 05:11:55;;;;;;;2.40;1.50;;;;;;;;;;5011951;28;20399;-86
2022/10/23 05:14:21;;;;;;;2.05;1.30;;;;;;;;;;5012177;28;20790;-85
2022/10/23 05:16:47;;;;;;;1.55;1.10;;;;;;;;;;5012435;28;20403;-85
2022/10/23 05:19:17;;;;;;;1.73;1.38;;;;;;;;;;5012302;28;20408;-85
2022/10/23 05:21:43;;;;;;;1.50;1.40;;;;;;;;;;5011662;28;20385;-85
2022/10/23 05:24:10;;;;;;;1.77;1.33;;;;;;;;;;5010288;28;20461;-85
2022/10/23 05:26:36;;;;;;;2.60;1.50;;;;;;;;;;5010349;28;20385;-85
2022/10/23 05:29:02;;;;;;;1.50;1.20;;;;;;;;;;5010624;28;20461;-85
2022/10/23 05:31:28;;;;;;;1.50;1.33;;;;;;;;;;5010306;28;20391;-85
2022/10/23 05:33:54;;;;;;;1.65;1.15;;;;;;;;;;5012315;28;20419;-85
2022/10/23 05:36:21;;;;;;;2.30;1.17;;;;;;;;;;5012212;28;20523;-84
2022/10/23 05:38:47;;;;;;;1.43;1.10;;;;;;;;;;5012164;28;20482;-84
2022/10/23 05:41:13;;;;;;;1.30;1.20;;;;;;;;;;5012025;28;20444;-84
2022/10/23 05:43:39;;;;;;;3.58;1.10;;;;;;;;;;5012225;28;20372;-84
2022/10/23 05:46:05;;;;;;;1.87;1.20;;;;;;;;;;4999670;28;20964;-83
2022/10/23 05:48:32;;;;;;;1.75;1.40;;;;;;;;;;5010947;28;20384;-85
2022/10/23 05:51:05;;;;;;;1.60;1.20;;;;;;;;;;5010826;28;20393;-84
2022/10/23 05:53:31;;;;;;;1.30;1.20;;;;;;;;;;5012070;28;20385;-85
2022/10/23 05:56:02;;;;;;;2.33;1.13;;;;;;;;;;5007975;28;20788;-84
2022/10/23 05:58:28;;;;;;;1.20;1.00;;;;;;;;;;5005941;28;21162;-84
2022/10/23 06:00:54;;;;;;;8.18;2.70;;;;;;;;;;5000681;28;20500;-85
2022/10/23 06:03:20;;;;;;;5.47;1.50;;;;;;;;;;5011913;28;20381;-84
2022/10/23 06:05:50;;;;;;;6.43;1.80;;;;;;;;;;5012258;28;20447;-85
2022/10/23 06:08:16;;;;;;;3.22;1.73;;;;;;;;;;5011923;28;20380;-84
2022/10/23 06:10:42;;;;;;;2.58;1.60;;;;;;;;;;5012631;28;20377;-85
2022/10/23 06:13:08;;;;;;;2.05;1.63;;;;;;;;;;5015858;28;20407;-84
2022/10/23 06:15:34;;;;;;;4.20;2.08;;;;;;;;;;5015540;28;20384;-84
2022/10/23 06:18:01;;;;;;;3.05;1.52;;;;;;;;;;5015377;28;20409;-85
2022/10/23 06:20:27;;;;;;;1.65;1.35;;;;;;;;;;5014969;28;20408;-85
2022/10/23 06:22:53;;;;;;;2.35;1.30;;;;;;;;;;5008318;28;20384;-82
2022/10/23 06:25:19;;;;;;;2.38;1.45;;;;;;;;;;5008151;28;20377;-83
2022/10/23 06:27:45;;;;;;;1.58;1.48;;;;;;;;;;5013486;28;20381;-82
2022/10/23 06:30:11;;;;;;;2.85;1.50;;;;;;;;;;5015158;28;20881;-82
2022/10/23 06:32:37;;;;;;;1.80;1.40;;;;;;;;;;5009679;28;20425;-83
2022/10/23 06:35:03;;;;;;;2.20;1.38;;;;;;;;;;5002895;28;20959;-84
2022/10/23 06:37:29;;;;;;;1.95;1.30;;;;;;;;;;5013802;28;20389;-84
2022/10/23 06:39:55;;;;;;;2.50;1.38;;;;;;;;;;5012842;28;20400;-83
2022/10/23 06:42:21;;;;;;;1.48;1.20;;;;;;;;;;5009738;28;20410;-83
2022/10/23 06:44:47;;;;;;;2.75;1.48;;;;;;;;;;5010182;28;20959;-83
2022/10/23 06:47:14;;;;;;;3.83;1.65;;;;;;;;;;5015021;28;20460;-85
2022/10/23 06:49:40;;;;;;;1.58;1.40;;;;;;;;;;5014870;28;20380;-84
2022/10/23 06:52:06;;;;;;;2.28;1.70;;;;;;;;;;5014706;28;20400;-84
2022/10/23 06:54:32;;;;;;;2.53;1.70;;;;;;;;;;5014715;28;20487;-83
2022/10/23 06:56:58;;;;;;;1.50;1.40;;;;;;;;;;5014257;28;20385;-84
2022/10/23 06:59:24;;;;;;;1.85;1.33;;;;;;;;;;5014683;28;20866;-83
2022/10/23 07:01:50;;;;;;;1.60;1.50;;;;;;;;;;5014307;28;20396;-84
2022/10/23 07:04:16;;;;;;;1.73;1.52;;;;;;;;;;5014666;28;20727;-84
2022/10/23 07:06:42;;;;;;;1.88;1.67;;;;;;;;;;5007782;28;20405;-83
2022/10/23 07:09:08;;;;;;;2.53;1.50;;;;;;;;;;5006598;28;20417;-82
2022/10/23 07:11:34;;;;;;;2.37;1.40;;;;;;;;;;5010803;28;20436;-83
2022/10/23 07:14:00;;;;;;;4.10;1.30;;;;;;;;;;5014353;28;20369;-82
2022/10/23 07:16:27;;;;;;;3.45;1.58;;;;;;;;;;5002487;28;20925;-83
2022/10/23 07:19:00;;;;;;;3.42;1.90;;;;;;;;;;5012594;28;20385;-83
2022/10/23 07:21:31;;;;;;;3.22;1.95;;;;;;;;;;5014160;28;20407;-83
2022/10/23 07:23:58;;;;;;;1.65;1.55;;;;;;;;;;5012188;28;20851;-83
2022/10/23 07:26:24;;;;;;;3.97;1.67;;;;;;;;;;5013806;28;20843;-83
2022/10/23 07:28:54;;;;;;;2.10;1.30;;;;;;;;;;5013662;28;20444;-83
2022/10/23 07:31:23;;;;;;;2.08;1.60;;;;;;;;;;5013649;28;20385;-83
2022/10/23 07:33:49;;;;;;;4.85;1.90;;;;;;;;;;5013874;28;20384;-82
2022/10/23 07:36:15;;;;;;;2.40;1.88;;;;;;;;;;5013880;28;20381;-82
2022/10/23 07:38:41;;;;;;;4.38;1.90;;;;;;;;;;5012312;28;20460;-82
2022/10/23 07:41:07;;;;;;;2.50;2.30;;;;;;;;;;5007452;28;20400;-83
2022/10/23 07:43:34;;;;;;;2.53;2.10;;;;;;;;;;5013750;28;20439;-82
2022/10/23 07:46:00;;;;;;;3.08;2.10;;;;;;;;;;5013748;28;20395;-83
2022/10/23 07:48:26;;;;;;;2.60;2.40;;;;;;;;;;5010462;28;20494;-82
2022/10/23 07:50:54;;;;;;;3.22;1.95;;;;;;;;;;5013741;28;20464;-83
2022/10/23 07:53:21;;;;;;;4.13;1.98;;;;;;;;;;5000986;28;20385;-83
2022/10/23 07:55:53;;;;;;;3.13;1.73;;;;;;;;;;5006451;28;20385;-82
2022/10/23 07:58:22;;;;;;;2.85;1.90;;;;;;;;;;5013968;28;20389;-84
2022/10/23 08:00:58;;;;;;;1.63;1.53;;;;;;;;;;5013312;28;20439;-84
2022/10/23 08:03:28;;;;;;;2.47;1.73;;;;;;;;;;5013448;28;20391;-83
2022/10/23 08:05:54;;;;;;;2.78;2.05;;;;;;;;;;5013800;28;20723;-84
2022/10/23 08:08:21;;;;;;;2.00;1.90;;;;;;;;;;5013214;28;20427;-84
2022/10/23 08:10:48;;;;;;;2.25;2.05;;;;;;;;;;5013239;28;20500;-84
2022/10/23 08:13:14;;;;;;;2.73;1.90;;;;;;;;;;5013371;28;20475;-83
2022/10/23 08:15:40;;;;;;;3.47;2.20;;;;;;;;;;5006584;28;20377;-83
2022/10/23 08:18:07;;;;;;;2.67;2.00;;;;;;;;;;5013036;28;20384;-84
2022/10/23 08:20:37;;;;;;;4.45;1.85;;;;;;;;;;5008748;28;20384;-84
2022/10/23 08:23:03;;;;;;;2.20;2.00;;;;;;;;;;5013363;28;20463;-83
2022/10/23 08:25:29;;;;;;;2.40;2.20;;;;;;;;;;5005117;28;20539;-82
2022/10/23 08:27:54;;;;;;;2.22;1.90;;;;;;;;;;5012431;28;20385;-84
2022/10/23 08:30:20;;;;;;;2.40;1.83;;;;;;;;;;5002980;28;20891;-84
2022/10/23 08:32:46;;;;;;;2.15;1.95;;;;;;;;;;5006702;28;20407;-83
2022/10/23 08:35:12;;;;;;;2.53;2.25;;;;;;;;;;5013267;28;20382;-84
2022/10/23 08:37:38;;;;;;;2.55;2.10;;;;;;;;;;5012627;28;20464;-82
2022/10/23 08:40:05;;;;;;;3.42;2.13;;;;;;;;;;5012590;28;20401;-83
2022/10/23 08:42:30;;;;;;;3.17;2.50;;;;;;;;;;5004357;28;20393;-83
2022/10/23 08:45:18;;;;;;;2.35;2.20;;;;;;;;;;5008950;28;20388;-83
2022/10/23 08:48:10;;;;;;;2.77;2.57;;;;;;;;;;5007933;28;20400;-84
2022/10/23 08:50:39;;;;;;;3.50;2.75;;;;;;;;;;5011233;28;20917;-83
2022/10/23 08:53:14;;;;;;;3.25;3.05;;;;;;;;;;5006787;28;20388;-83
2022/10/23 08:55:44;;;;;;;3.00;2.45;;;;;;;;;;5012430;28;20459;-83
2022/10/23 08:58:14;;;;;;;5.80;2.67;;;;;;;;;;5008440;28;20396;-83
2022/10/23 09:00:41;;;;;;;3.10;2.80;;;;;;;;;;5006532;28;20389;-81
2022/10/23 09:03:09;;;;;;;2.55;2.35;;;;;;;;;;5011027;28;20487;-82
2022/10/23 09:05:39;;;;;;;2.92;2.63;;;;;;;;;;5010273;28;20468;-82
2022/10/23 09:08:37;;;;;;;3.92;3.20;;;;;;;;;;5011057;28;20396;-82
2022/10/23 09:11:06;;;;;;;2.92;2.70;;;;;;;;;;4994560;28;20758;-82
2022/10/23 09:13:41;;;;;;;3.80;2.83;;;;;;;;;;5012066;28;20385;-82
2022/10/23 09:16:10;;;;;;;4.22;2.50;;;;;;;;;;5012359;28;20890;-82
2022/10/23 09:18:37;;;;;;;2.88;2.50;;;;;;;;;;5012221;28;20403;-82
2022/10/23 09:21:08;;;;;;;3.80;2.67;;;;;;;;;;5012236;28;20377;-82
2022/10/23 09:23:34;;;;;;;3.03;2.65;;;;;;;;;;5012760;28;20866;-82
2022/10/23 09:26:01;;;;;;;3.67;2.50;;;;;;;;;;5012368;28;20559;-82
2022/10/23 09:28:31;;;;;;;2.50;2.30;;;;;;;;;;5012253;28;20381;-82
2022/10/23 09:31:07;;;;;;;3.05;1.98;;;;;;;;;;5012206;28;20419;-82
2022/10/23 09:34:14;;;;;;;3.27;2.17;;;;;;;;;;5012259;28;20389;-82
2022/10/23 09:37:10;;;;;;;4.22;2.40;;;;;;;;;;5011940;28;20381;-82
2022/10/23 09:43:26;;;;;;;2.70;2.50;;;;;;;;;;5012323;28;20916;-82
2022/10/23 09:46:33;;;;;;;2.47;1.80;;;;;;;;;;4987674;28;20448;-82
2022/10/23 09:49:27;;;;;;;2.57;1.70;;;;;;;;;;4994248;28;20399;-82
2022/10/23 09:52:18;;;;;;;2.88;1.90;;;;;;;;;;4994249;28;20793;-82
2022/10/23 09:55:30;;;;;;;1.92;1.80;;;;;;;;;;4974758;28;20388;-82
2022/10/23 09:58:16;;;;;;;1.33;1.23;;;;;;;;;;4959134;28;20388;-82
2022/10/23 10:01:03;;;;;;;1.77;1.30;;;;;;;;;;4989935;28;20780;-82
2022/10/23 10:03:47;;;;;;;1.90;1.20;;;;;;;;;;4994063;28;20397;-82
2022/10/23 10:06:50;;;;;;;2.85;1.65;;;;;;;;;;4993962;28;20386;-82
2022/10/23 10:12:45;;;;;;;1.53;1.10;;;;;;;;;;4991783;28;20369;-82
2022/10/23 10:15:55;;;;;;;2.07;0.90;;;;;;;;;;4993983;28;20422;-82
2022/10/23 10:18:25;;;;;;;1.50;0.60;;;;;;;;;;4991078;28;20383;-82
2022/10/23 10:21:17;;;;;;;0.75;0.50;;;;;;;;;;5009225;28;20936;-82
2022/10/23 10:24:02;;;;;;;1.20;0.70;;;;;;;;;;5008237;28;20422;-82
2022/10/23 10:33:12;;;;;;;1.08;0.68;;;;;;;;;;5015168;28;20364;-82
2022/10/23 10:35:52;;;;;;;1.08;0.70;;;;;;;;;;5026478;28;20385;-82
2022/10/23 10:38:29;;;;;;;2.25;0.70;;;;;;;;;;5014977;28;20431;-82
2022/10/23 10:41:17;;;;;;;3.35;0.90;;;;;;;;;;5015158;28;20373;-82
2022/10/23 10:43:56;;;;;;;2.13;0.68;;;;;;;;;;5015263;28;20385;-82
2022/10/23 10:46:32;;;;;;;2.33;0.60;;;;;;;;;;5014948;28;20846;-82
2022/10/23 10:49:39;;;;;;;1.40;0.63;;;;;;;;;;5015053;28;20459;-82
2022/10/23 10:52:32;;;;;;;3.53;0.80;;;;;;;;;;5029321;28;20477;-82
2022/10/23 10:55:19;;;;;;;3.42;0.88;;;;;;;;;;5014791;28;20376;-82
2022/10/23 10:57:47;;;;;;;0.68;0.50;;;;;;;;;;5014672;28;20383;-82
2022/10/23 11:00:13;;;;;;;3.60;0.75;;;;;;;;;;5014359;28;20395;-83
2022/10/23 11:03:07;;;;;;;1.10;0.60;;;;;;;;;;5014718;28;20401;-82
2022/10/23 11:08:54;;;;;;;3.70;2.65;;;;;;;;;;5016564;28;20416;-82
2022/10/23 11:11:47;;;;;;;4.90;2.42;;;;;;;;;;5014268;28;20381;-83
2022/10/23 11:14:17;;;;;;;5.68;2.33;;;;;;;;;;5013538;28;20866;-82
2022/10/23 11:16:45;;;;;;;2.55;1.60;;;;;;;;;;5014415;28;20391;-82
2022/10/23 11:19:28;;;;;;;2.65;1.33;;;;;;;;;;5014278;28;20461;-83
2022/10/23 11:22:11;;;;;;;2.65;0.85;;;;;;;;;;5014222;28;20377;-82
2022/10/23 11:24:43;;;;;;;4.00;1.23;;;;;;;;;;5012916;28;20396;-82
2022/10/23 11:27:15;;;;;;;2.70;1.00;;;;;;;;;;5014333;28;20862;-82
2022/10/23 11:30:00;;;;;;;1.73;1.00;;;;;;;;;;5014009;28;20956;-82
2022/10/23 11:32:53;;;;;;;2.78;0.77;;;;;;;;;;5013825;28;20384;-82
2022/10/23 11:35:31;;;;;;;2.47;1.10;;;;;;;;;;5014031;28;20377;-82
2022/10/23 11:37:59;;;;;;;2.63;1.10;;;;;;;;;;5014094;28;20435;-82
2022/10/23 11:40:46;;;;;;;1.45;1.00;;;;;;;;;;5013914;28;20392;-82
2022/10/23 11:43:54;;;;;;;2.30;0.80;;;;;;;;;;5013667;28;20388;-82
2022/10/23 11:47:12;;;;;;;1.90;1.08;;;;;;;;;;5014762;28;20454;-82
2022/10/23 11:49:38;;;;;;;2.28;1.10;;;;;;;;;;4992873;28;20556;-82
2022/10/23 11:52:21;;;;;;;1.88;1.05;;;;;;;;;;5008475;28;20478;-82
2022/10/23 11:54:47;;;;;;;2.10;1.10;;;;;;;;;;5016156;28;20381;-82
2022/10/23 11:57:14;;;;;;;3.87;1.00;;;;;;;;;;5012939;28;20392;-82
2022/10/23 12:00:00;;;;;;;2.08;0.85;;;;;;;;;;5013827;28;20798;-82
2022/10/23 12:02:36;;;;;;;2.03;0.90;;;;;;;;;;5011961;28;20922;-83
2022/10/23 12:05:44;;;;;;;1.33;1.20;;;;;;;;;;5015289;28;20393;-82
2022/10/23 12:08:32;;;;;;;3.13;1.20;;;;;;;;;;5007854;28;20389;-82
2022/10/23 12:11:30;;;;;;;4.87;3.10;;;;;;;;;;5013232;28;20411;-82
2022/10/23 12:14:33;;;;;;;2.90;2.60;;;;;;;;;;5011030;28;20393;-82
2022/10/23 12:17:34;;;;;;;3.95;3.42;;;;;;;;;;5012120;28;20393;-82
2022/10/23 12:20:12;;;;;;;3.40;2.90;;;;;;;;;;5013131;28;20379;-82
2022/10/23 12:26:02;;;;;;;5.47;4.65;;;;;;;;;;5013312;28;20423;-82
2022/10/23 12:35:19;;;;;;;3.38;2.60;;;;;;;;;;5009944;28;20472;-83
2022/10/23 12:38:43;;;;;;;3.83;2.93;;;;;;;;;;5012199;28;20385;-83
2022/10/23 12:41:38;;;;;;;3.17;1.90;;;;;;;;;;5011367;28;20770;-83
2022/10/23 12:44:10;;;;;;;3.08;2.70;;;;;;;;;;5010855;28;20418;-84
2022/10/23 12:46:39;;;;;;;3.60;1.70;;;;;;;;;;5010609;28;20431;-84
2022/10/23 12:49:24;;;;;;;2.80;1.45;;;;;;;;;;4999351;28;20411;-84
2022/10/23 12:52:12;;;;;;;2.83;1.50;;;;;;;;;;5005788;28;20402;-84
2022/10/23 12:54:58;;;;;;;1.70;1.55;;;;;;;;;;4997990;28;20942;-84
2022/10/23 12:57:27;;;;;;;3.38;1.58;;;;;;;;;;5012566;28;20424;-86
2022/10/23 13:00:09;;;;;;;2.70;1.30;;;;;;;;;;5011646;28;20401;-84
2022/10/23 13:02:35;;;;;;;2.60;1.58;;;;;;;;;;5005675;28;20391;-84
2022/10/23 13:05:02;;;;;;;2.03;1.52;;;;;;;;;;5004448;28;20408;-84
2022/10/23 13:07:29;;;;;;;1.90;1.55;;;;;;;;;;5004215;28;20811;-83
2022/10/23 13:09:55;;;;;;;3.70;1.70;;;;;;;;;;5011381;28;20417;-83
2022/10/23 13:12:26;;;;;;;2.70;1.60;;;;;;;;;;5011109;28;20404;-83
2022/10/23 13:14:56;;;;;;;1.92;1.70;;;;;;;;;;5011958;28;20385;-83
2022/10/23 13:17:32;;;;;;;2.20;1.80;;;;;;;;;;5011775;28;20440;-83
2022/10/23 13:20:08;;;;;;;1.80;1.70;;;;;;;;;;5012303;28;20923;-82
2022/10/23 13:22:34;;;;;;;4.07;1.60;;;;;;;;;;5016553;28;20392;-82
2022/10/23 13:24:59;;;;;;;3.42;2.00;;;;;;;;;;5015208;28;20391;-83
2022/10/23 13:27:31;;;;;;;4.47;2.35;;;;;;;;;;5007960;28;20400;-82
2022/10/23 13:29:57;;;;;;;3.30;3.00;;;;;;;;;;5011974;28;20455;-84
2022/10/23 13:32:25;;;;;;;9.50;5.90;;;;;;;;;;5009456;28;20400;-85
2022/10/23 13:34:54;;;;;;;5.93;5.32;;;;;;;;;;5010780;28;20475;-85
2022/10/23 13:37:20;;;;;;;4.40;2.75;;;;;;;;;;5014732;28;20416;-86
2022/10/23 13:39:46;;;;;;;4.10;3.70;;;;;;;;;;5014831;28;20436;-86
2022/10/23 13:42:13;;;;;;;2.15;2.03;;;;;;;;;;5013287;28;20888;-87
2022/10/23 13:44:39;;;;;;;1.92;1.42;;;;;;;;;;5014818;28;20395;-87
2022/10/23 13:47:05;;;;;;;3.13;1.65;;;;;;;;;;5013284;28;20432;-85
2022/10/23 13:49:31;;;;;;;4.95;2.53;;;;;;;;;;5013641;28;20408;-86
2022/10/23 13:51:57;;;;;;;3.22;2.42;;;;;;;;;;5003145;28;20373;-84
2022/10/23 13:54:25;;;;;;;6.90;4.07;;;;;;;;;;5014486;28;20416;-85
2022/10/23 13:56:51;;;;;;;7.22;3.50;;;;;;;;;;5015171;28;20442;-83
2022/10/23 13:59:17;;;;;;;10.43;4.78;;;;;;;;;;5014969;28;20381;-83
2022/10/23 14:01:44;;;;;;;4.18;3.20;;;;;;;;;;5014226;28;20475;-84
2022/10/23 14:04:10;;;;;;;4.43;3.28;;;;;;;;;;5010208;28;21000;-87
2022/10/23 14:06:37;;;;;;;6.47;4.13;;;;;;;;;;5010270;28;20401;-87
2022/10/23 14:09:04;;;;;;;7.53;3.80;;;;;;;;;;5014852;28;20404;-87
2022/10/23 14:11:31;;;;;;;3.63;2.53;;;;;;;;;;5010615;28;20466;-84
2022/10/23 14:13:57;;;;;;;3.38;2.47;;;;;;;;;;5010639;28;20406;-86
2022/10/23 14:16:23;;;;;;;4.50;2.60;;;;;;;;;;5014226;28;20739;-86
2022/10/23 14:18:49;;;;;;;5.57;3.70;;;;;;;;;;5014400;28;20396;-84
2022/10/23 14:21:16;;;;;;;4.75;4.28;;;;;;;;;;5007528;28;20396;-85
2022/10/23 14:23:42;;;;;;;3.67;2.13;;;;;;;;;;5014171;28;20392;-84
2022/10/23 14:26:10;;;;;;;8.02;3.90;;;;;;;;;;5015508;28;20438;-86
2022/10/23 14:28:36;;;;;;;5.10;3.13;;;;;;;;;;5009185;28;20380;-85
2022/10/23 14:31:03;;;;;;;6.30;2.75;;;;;;;;;;5011769;28;20437;-86
2022/10/23 14:33:29;;;;;;;3.00;2.72;;;;;;;;;;5014968;28;20377;-84
2022/10/23 14:35:55;;;;;;;4.30;1.88;;;;;;;;;;5015463;28;20395;-83
2022/10/23 14:38:21;;;;;;;7.18;3.03;;;;;;;;;;5013720;28;20384;-84
2022/10/23 14:40:47;;;;;;;2.75;1.90;;;;;;;;;;5014807;28;20447;-84
2022/10/23 14:43:13;;;;;;;4.63;2.20;;;;;;;;;;5014956;28;20469;-86
2022/10/23 14:45:39;;;;;;;2.63;2.20;;;;;;;;;;5015303;28;20396;-83
2022/10/23 14:48:05;;;;;;;5.90;2.55;;;;;;;;;;5014876;28;20385;-83
2022/10/23 14:50:31;;;;;;;3.85;3.00;;;;;;;;;;5013894;28;20413;-88
2022/10/23 14:52:57;;;;;;;4.47;4.07;;;;;;;;;;5012735;28;20380;-86
2022/10/23 14:55:23;;;;;;;5.30;4.72;;;;;;;;;;5012774;28;20443;-85
2022/10/23 14:57:54;;;;;;;6.43;5.35;;;;;;;;;;5011586;28;20384;-85
2022/10/23 15:00:20;;;;;;;8.32;7.50;;;;;;;;;;5011828;28;20389;-85
2022/10/23 15:02:46;;;;;;;6.03;5.63;;;;;;;;;;5012592;28;20431;-84
2022/10/23 15:05:12;;;;;;;5.05;4.30;;;;;;;;;;5006782;28;20404;-85
2022/10/23 15:07:39;;;;;;;8.10;7.40;;;;;;;;;;5014183;28;20389;-85
2022/10/23 15:10:05;;;;;;;7.00;5.97;;;;;;;;;;5009984;28;20439;-83
2022/10/23 15:12:31;;;;;;;7.05;6.35;;;;;;;;;;5001027;28;20386;-83
2022/10/23 15:14:57;;;;;;;7.40;6.67;;;;;;;;;;5014147;28;20385;-83
2022/10/23 15:17:23;;;;;;;5.30;4.88;;;;;;;;;;5014220;28;20459;-83
2022/10/23 15:19:49;;;;;;;4.50;4.10;;;;;;;;;;5014082;28;20516;-83
2022/10/23 15:22:15;;;;;;;3.95;3.60;;;;;;;;;;5014197;28;20874;-83
2022/10/23 15:24:41;;;;;;;3.27;2.00;;;;;;;;;;5014193;28;20389;-82
2022/10/23 15:27:07;;;;;;;2.70;1.52;;;;;;;;;;5014507;28;20471;-83
2022/10/23 15:29:33;;;;;;;4.30;2.65;;;;;;;;;;5014254;28;20423;-83
2022/10/23 15:32:00;;;;;;;6.90;3.45;;;;;;;;;;5013440;28;20385;-84
2022/10/23 15:34:27;;;;;;;4.95;4.55;;;;;;;;;;5014079;28;20389;-84
2022/10/23 15:36:54;;;;;;;4.25;3.70;;;;;;;;;;5013983;28;20381;-84
2022/10/23 15:39:24;;;;;;;4.27;3.13;;;;;;;;;;5013991;28;20385;-84
2022/10/23 15:41:51;;;;;;;5.63;4.68;;;;;;;;;;5012250;28;20399;-84
2022/10/23 15:44:18;;;;;;;4.97;2.63;;;;;;;;;;5013206;28;20388;-85
2022/10/23 15:46:44;;;;;;;2.28;2.03;;;;;;;;;;5009978;28;20430;-84
2022/10/23 15:49:10;;;;;;;5.35;2.13;;;;;;;;;;5013992;28;20436;-84
2022/10/23 15:51:36;;;;;;;2.47;2.13;;;;;;;;;;5013614;28;20373;-83
2022/10/23 15:54:04;;;;;;;4.15;3.15;;;;;;;;;;5012812;28;20754;-83
2022/10/23 15:56:30;;;;;;;3.22;2.92;;;;;;;;;;5013171;28;20384;-83
2022/10/23 15:58:56;;;;;;;3.97;3.50;;;;;;;;;;5013640;28;20377;-83
2022/10/23 16:01:22;;;;;;;5.13;3.30;;;;;;;;;;5013155;28;20418;-85
2022/10/23 16:03:49;;;;;;;7.55;6.35;;;;;;;;;;5013718;28;20389;-83
2022/10/23 16:06:16;;;;;;;6.00;4.97;;;;;;;;;;5001046;28;20374;-84
2022/10/23 16:08:42;;;;;;;4.20;3.78;;;;;;;;;;5010150;28;20385;-83
2022/10/23 16:11:26;;;;;;;4.87;4.37;;;;;;;;;;5012630;28;20424;-82
2022/10/23 16:13:53;;;;;;;16.27;13.63;;;;;;;;;;5012623;28;20462;-83
2022/10/23 16:16:19;;;;;;;6.03;5.05;;;;;;;;;;5013177;28;20870;-83
2022/10/23 16:18:46;;;;;;;9.20;6.33;;;;;;;;;;5008770;28;20557;-83
2022/10/23 16:21:25;;;;;;;7.07;6.35;;;;;;;;;;5013013;28;20391;-84
2022/10/23 16:23:52;;;;;;;6.30;5.70;;;;;;;;;;5013083;28;20896;-84
2022/10/23 16:26:18;;;;;;;6.30;5.70;;;;;;;;;;5013089;28;20786;-85
2022/10/23 16:28:45;;;;;;;7.18;6.47;;;;;;;;;;5005293;28;20453;-84
2022/10/23 16:31:13;;;;;;;7.47;6.07;;;;;;;;;;5012751;28;20388;-84
2022/10/23 16:33:44;;;;;;;7.13;6.43;;;;;;;;;;5012811;28;20393;-84
2022/10/23 16:36:18;;;;;;;6.53;6.03;;;;;;;;;;5004943;28;20379;-83
2022/10/23 16:38:47;;;;;;;8.30;6.20;;;;;;;;;;5008552;28;20462;-83
2022/10/23 16:41:16;;;;;;;10.27;9.52;;;;;;;;;;5012706;28;20380;-83
2022/10/23 16:43:51;;;;;;;6.80;6.18;;;;;;;;;;5003092;28;20424;-83
2022/10/23 16:46:20;;;;;;;8.32;7.50;;;;;;;;;;5005318;28;20405;-83
2022/10/23 16:48:50;;;;;;;8.30;7.60;;;;;;;;;;4999013;28;20390;-84
2022/10/23 16:51:39;;;;;;;7.95;7.28;;;;;;;;;;5006182;28;20805;-84
2022/10/23 16:54:13;;;;;;;9.13;8.53;;;;;;;;;;5000691;28;20411;-84
2022/10/23 16:56:48;;;;;;;6.20;5.70;;;;;;;;;;5009690;28;20421;-84
2022/10/23 16:59:19;;;;;;;5.38;4.68;;;;;;;;;;5003295;28;20390;-84
2022/10/23 17:01:48;;;;;;;5.53;4.70;;;;;;;;;;4996760;28;20405;-84
2022/10/23 17:04:17;;;;;;;6.97;4.97;;;;;;;;;;5001601;28;20390;-84
2022/10/23 17:06:43;;;;;;;9.27;5.75;;;;;;;;;;4997782;28;20394;-83
2022/10/23 17:09:15;;;;;;;8.93;6.10;;;;;;;;;;5002291;28;20486;-83
2022/10/23 17:11:43;;;;;;;6.70;6.03;;;;;;;;;;4997267;28;20383;-82
2022/10/23 17:14:37;;;;;;;6.20;5.60;;;;;;;;;;5006876;28;20920;-82
2022/10/23 17:17:05;;;;;;;6.65;6.15;;;;;;;;;;4997171;28;20382;-82
2022/10/23 17:19:35;;;;;;;6.97;6.18;;;;;;;;;;5013107;28;20415;-82
2022/10/23 17:22:01;;;;;;;7.32;6.72;;;;;;;;;;5012774;28;20427;-83
2022/10/23 17:24:32;;;;;;;11.85;9.80;;;;;;;;;;5000241;28;20747;-83
2022/10/23 17:26:58;;;;;;;10.60;8.57;;;;;;;;;;4998592;28;20379;-82
2022/10/23 17:29:27;;;;;;;10.00;9.10;;;;;;;;;;4998063;28;20433;-84
2022/10/23 17:31:56;;;;;;;11.82;10.73;;;;;;;;;;4992040;28;20465;-84
2022/10/23 17:34:23;;;;;;;9.10;8.27;;;;;;;;;;5006670;28;20460;-84
2022/10/23 17:36:54;;;;;;;8.55;7.70;;;;;;;;;;5012134;28;20542;-84
2022/10/23 17:39:43;;;;;;;6.78;6.10;;;;;;;;;;5012074;28;20380;-83
2022/10/23 17:42:18;;;;;;;6.40;5.80;;;;;;;;;;5007822;28;20389;-84
2022/10/23 17:44:47;;;;;;;6.38;5.80;;;;;;;;;;5011246;28;20798;-84
2022/10/23 17:47:21;;;;;;;6.28;5.68;;;;;;;;;;5008090;28;20391;-82
2022/10/23 17:49:50;;;;;;;6.45;5.90;;;;;;;;;;4997898;28;20811;-81
2022/10/23 17:52:19;;;;;;;6.18;5.55;;;;;;;;;;5001932;28;20425;-82
2022/10/23 17:54:51;;;;;;;6.97;6.28;;;;;;;;;;4995120;28;20796;-82
2022/10/23 17:57:20;;;;;;;7.43;6.82;;;;;;;;;;5007281;28;20408;-84
2022/10/23 17:59:46;;;;;;;6.35;5.70;;;;;;;;;;4996827;28;20390;-82
2022/10/23 18:02:14;;;;;;;6.18;5.57;;;;;;;;;;4997935;28;20459;-83
2022/10/23 18:04:40;;;;;;;6.00;5.43;;;;;;;;;;4994112;28;20397;-82
2022/10/23 18:07:06;;;;;;;6.18;5.20;;;;;;;;;;5010367;28;20381;-82
2022/10/23 18:09:35;;;;;;;6.25;5.28;;;;;;;;;;5014367;28;20401;-82
2022/10/23 18:12:01;;;;;;;6.60;6.00;;;;;;;;;;5001552;28;20445;-82
2022/10/23 18:14:30;;;;;;;7.57;6.78;;;;;;;;;;5001836;28;20766;-83
2022/10/23 18:16:59;;;;;;;8.48;7.57;;;;;;;;;;4999005;28;20725;-83
2022/10/23 18:19:25;;;;;;;8.50;7.60;;;;;;;;;;5001742;28;20380;-83
2022/10/23 18:21:55;;;;;;;8.48;7.72;;;;;;;;;;5001881;28;20951;-83
2022/10/23 18:24:25;;;;;;;9.25;8.45;;;;;;;;;;5003272;28;20404;-83
2022/10/23 18:27:11;;;;;;;8.80;6.97;;;;;;;;;;4999386;28;20748;-82
2022/10/23 18:29:46;;;;;;;7.67;7.07;;;;;;;;;;5003063;28;20933;-83
2022/10/23 18:32:15;;;;;;;8.32;7.32;;;;;;;;;;4999956;28;20378;-83
2022/10/23 18:34:41;;;;;;;8.20;6.80;;;;;;;;;;5002732;28;20743;-83
2022/10/23 18:37:07;;;;;;;6.80;6.20;;;;;;;;;;5000838;28;20390;-83
2022/10/23 18:39:36;;;;;;;7.18;6.47;;;;;;;;;;5006733;28;20401;-83
2022/10/23 18:42:02;;;;;;;6.75;6.20;;;;;;;;;;4999524;28;20442;-83
2022/10/23 18:44:33;;;;;;;7.90;6.55;;;;;;;;;;4995803;28;20923;-83
2022/10/23 18:47:02;;;;;;;8.35;6.50;;;;;;;;;;4999273;28;20416;-83
2022/10/23 18:49:40;;;;;;;7.20;6.50;;;;;;;;;;4998914;28;20513;-83
2022/10/23 18:52:11;;;;;;;6.82;6.10;;;;;;;;;;5001419;28;20385;-83
2022/10/23 18:54:37;;;;;;;6.90;6.20;;;;;;;;;;4998588;28;20809;-82
2022/10/23 18:57:08;;;;;;;8.40;6.13;;;;;;;;;;5006333;28;20396;-84
2022/10/23 18:59:34;;;;;;;6.00;5.40;;;;;;;;;;5005863;28;20396;-83
2022/10/23 19:02:00;;;;;;;8.68;6.43;;;;;;;;;;4998220;28;20763;-83
2022/10/23 19:04:32;;;;;;;6.30;5.70;;;;;;;;;;4998079;28;20894;-83
2022/10/23 19:07:01;;;;;;;9.05;5.72;;;;;;;;;;5000280;28;20477;-83
2022/10/23 19:09:32;;;;;;;5.63;5.05;;;;;;;;;;5004412;28;20412;-83
2022/10/23 19:12:01;;;;;;;5.60;5.10;;;;;;;;;;5008151;28;20394;-84
2022/10/23 19:14:29;;;;;;;5.70;4.40;;;;;;;;;;5011907;28;20411;-83
2022/10/23 19:17:04;;;;;;;5.80;5.03;;;;;;;;;;5013084;28;20408;-84
2022/10/23 19:19:40;;;;;;;5.70;5.20;;;;;;;;;;5012926;28;20861;-85
2022/10/23 19:22:10;;;;;;;6.13;5.53;;;;;;;;;;5014146;28;20408;-83
2022/10/23 19:24:41;;;;;;;6.43;5.82;;;;;;;;;;5014144;28;20443;-83
2022/10/23 19:27:19;;;;;;;7.30;6.65;;;;;;;;;;5014324;28;20380;-83
2022/10/23 19:29:46;;;;;;;7.75;6.95;;;;;;;;;;5010943;28;20826;-83
2022/10/23 19:32:12;;;;;;;7.30;6.50;;;;;;;;;;5000768;28;20782;-84
2022/10/23 19:34:38;;;;;;;7.43;6.65;;;;;;;;;;5005824;28;20375;-85